sensor_id;sensor_type;location;lat;lon;timestamp;pressure;altitude;pressure_sealevel;temperature;humidity
74578;BME280;63173;49.086;33.418;2023-03-01T00:00:37;101307.84;;;-2.56;93.26
74578;BME280;63173;49.086;33.418;2023-03-01T00:03:02;101300.84;;;-2.57;92.42
74578;BME280;63173;49.086;33.418;2023-03-01T00:05:27;101303.31;;;-2.55;93.08
74578;BME280;63173;49.086;33.418;2023-03-01T00:07:53;101298.38;;;-2.58;92.44
74578;BME280;63173;49.086;33.418;2023-03-01T00:10:19;101294.72;;;-2.57;92.80
74578;BME280;63173;49.086;33.418;2023-03-01T00:12:44;101291.03;;;-2.56;92.66
74578;BME280;63173;49.086;33.418;2023-03-01T00:15:09;101285.25;;;-2.60;92.92
74578;BME280;63173;49.086;33.418;2023-03-01T00:17:35;101289.75;;;-2.60;92.42
74578;BME280;63173;49.086;33.418;2023-03-01T00:20:00;101294.13;;;-2.67;92.84
74578;BME280;63173;49.086;33.418;2023-03-01T00:22:26;101284.41;;;-2.60;92.77
74578;BME280;63173;49.086;33.418;2023-03-01T00:24:53;101283.78;;;-2.62;92.99
74578;BME280;63173;49.086;33.418;2023-03-01T00:27:19;101292.06;;;-2.57;92.75
74578;BME280;63173;49.086;33.418;2023-03-01T00:29:44;101290.81;;;-2.69;92.78
74578;BME280;63173;49.086;33.418;2023-03-01T00:32:10;101286.66;;;-2.72;92.94
74578;BME280;63173;49.086;33.418;2023-03-01T00:34:35;101289.13;;;-2.70;93.18
74578;BME280;63173;49.086;33.418;2023-03-01T00:37:01;101283.81;;;-2.70;92.77
74578;BME280;63173;49.086;33.418;2023-03-01T00:39:30;101280.50;;;-2.72;93.17
74578;BME280;63173;49.086;33.418;2023-03-01T00:41:55;101282.84;;;-2.69;93.01
74578;BME280;63173;49.086;33.418;2023-03-01T00:44:21;101279.09;;;-2.83;92.84
74578;BME280;63173;49.086;33.418;2023-03-01T00:46:47;101285.53;;;-2.77;93.29
74578;BME280;63173;49.086;33.418;2023-03-01T00:49:13;101282.28;;;-2.88;93.38
74578;BME280;63173;49.086;33.418;2023-03-01T00:51:39;101287.44;;;-2.86;92.92
74578;BME280;63173;49.086;33.418;2023-03-01T00:54:08;101274.94;;;-2.86;93.21
74578;BME280;63173;49.086;33.418;2023-03-01T00:56:34;101262.84;;;-2.88;92.81
74578;BME280;63173;49.086;33.418;2023-03-01T00:59:00;101270.84;;;-2.88;92.72
74578;BME280;63173;49.086;33.418;2023-03-01T01:01:28;101263.19;;;-2.91;93.16
74578;BME280;63173;49.086;33.418;2023-03-01T01:03:59;101261.88;;;-2.95;92.92
74578;BME280;63173;49.086;33.418;2023-03-01T01:06:27;101259.22;;;-2.95;92.81
74578;BME280;63173;49.086;33.418;2023-03-01T01:08:53;101248.25;;;-2.92;93.35
74578;BME280;63173;49.086;33.418;2023-03-01T01:11:20;101256.22;;;-2.92;93.49
74578;BME280;63173;49.086;33.418;2023-03-01T01:13:47;101257.28;;;-3.01;93.59
74578;BME280;63173;49.086;33.418;2023-03-01T01:16:13;101248.81;;;-3.05;93.59
74578;BME280;63173;49.086;33.418;2023-03-01T01:18:38;101249.78;;;-2.98;93.50
74578;BME280;63173;49.086;33.418;2023-03-01T01:21:12;101244.47;;;-2.98;93.35
74578;BME280;63173;49.086;33.418;2023-03-01T01:23:39;101248.50;;;-3.02;93.32
74578;BME280;63173;49.086;33.418;2023-03-01T01:26:06;101236.84;;;-3.01;93.38
74578;BME280;63173;49.086;33.418;2023-03-01T01:28:32;101229.28;;;-2.89;92.83
74578;BME280;63173;49.086;33.418;2023-03-01T01:30:57;101236.78;;;-2.93;93.01
74578;BME280;63173;49.086;33.418;2023-03-01T01:33:23;101240.16;;;-2.99;92.70
74578;BME280;63173;49.086;33.418;2023-03-01T01:35:48;101223.56;;;-3.01;92.66
74578;BME280;63173;49.086;33.418;2023-03-01T01:38:14;101217.28;;;-3.08;92.79
74578;BME280;63173;49.086;33.418;2023-03-01T01:40:47;101208.38;;;-2.92;93.08
74578;BME280;63173;49.086;33.418;2023-03-01T01:43:27;101204.59;;;-2.98;92.69
74578;BME280;63173;49.086;33.418;2023-03-01T01:46:01;101206.91;;;-2.95;92.84
74578;BME280;63173;49.086;33.418;2023-03-01T01:48:34;101204.13;;;-3.01;92.94
74578;BME280;63173;49.086;33.418;2023-03-01T01:51:11;101207.28;;;-2.98;92.88
74578;BME280;63173;49.086;33.418;2023-03-01T01:53:39;101206.94;;;-3.03;92.91
74578;BME280;63173;49.086;33.418;2023-03-01T01:56:07;101196.31;;;-3.03;93.21
74578;BME280;63173;49.086;33.418;2023-03-01T01:58:34;101182.97;;;-2.95;92.38
74578;BME280;63173;49.086;33.418;2023-03-01T02:00:59;101184.22;;;-3.05;92.95
74578;BME280;63173;49.086;33.418;2023-03-01T02:03:29;101179.19;;;-3.00;93.04
74578;BME280;63173;49.086;33.418;2023-03-01T02:08:27;101167.03;;;-2.95;92.39
74578;BME280;63173;49.086;33.418;2023-03-01T02:10:56;101167.59;;;-2.99;92.43
74578;BME280;63173;49.086;33.418;2023-03-01T02:13:22;101169.75;;;-3.03;93.20
74578;BME280;63173;49.086;33.418;2023-03-01T02:15:48;101167.31;;;-3.12;92.84
74578;BME280;63173;49.086;33.418;2023-03-01T02:18:17;101154.44;;;-3.01;93.31
74578;BME280;63173;49.086;33.418;2023-03-01T02:23:38;101155.47;;;-3.02;93.53
74578;BME280;63173;49.086;33.418;2023-03-01T02:26:07;101149.88;;;-3.07;93.12
74578;BME280;63173;49.086;33.418;2023-03-01T02:28:38;101153.16;;;-3.05;93.30
74578;BME280;63173;49.086;33.418;2023-03-01T02:31:07;101134.63;;;-3.13;93.22
74578;BME280;63173;49.086;33.418;2023-03-01T02:33:53;101144.91;;;-3.10;93.59
74578;BME280;63173;49.086;33.418;2023-03-01T02:36:23;101137.28;;;-3.13;93.29
74578;BME280;63173;49.086;33.418;2023-03-01T02:38:52;101142.41;;;-3.11;93.51
74578;BME280;63173;49.086;33.418;2023-03-01T02:41:19;101135.09;;;-3.09;93.63
74578;BME280;63173;49.086;33.418;2023-03-01T02:43:46;101147.50;;;-3.02;93.30
74578;BME280;63173;49.086;33.418;2023-03-01T02:46:19;101131.09;;;-3.05;93.01
74578;BME280;63173;49.086;33.418;2023-03-01T02:48:47;101133.56;;;-3.04;92.64
74578;BME280;63173;49.086;33.418;2023-03-01T02:56:57;101135.09;;;-3.09;92.13
74578;BME280;63173;49.086;33.418;2023-03-01T02:59:26;101125.31;;;-3.09;92.64
74578;BME280;63173;49.086;33.418;2023-03-01T03:01:54;101112.66;;;-3.07;92.26
74578;BME280;63173;49.086;33.418;2023-03-01T03:04:19;101117.34;;;-3.09;92.11
74578;BME280;63173;49.086;33.418;2023-03-01T03:06:47;101114.69;;;-3.09;92.01
74578;BME280;63173;49.086;33.418;2023-03-01T03:09:14;101110.81;;;-3.06;91.83
74578;BME280;63173;49.086;33.418;2023-03-01T03:11:41;101110.16;;;-3.08;92.01
74578;BME280;63173;49.086;33.418;2023-03-01T03:14:09;101090.38;;;-3.06;91.45
74578;BME280;63173;49.086;33.418;2023-03-01T03:16:43;101095.06;;;-3.08;91.55
74578;BME280;63173;49.086;33.418;2023-03-01T03:19:08;101093.75;;;-3.12;91.67
74578;BME280;63173;49.086;33.418;2023-03-01T03:21:34;101083.97;;;-3.11;91.16
74578;BME280;63173;49.086;33.418;2023-03-01T03:24:00;101082.47;;;-3.14;91.57
74578;BME280;63173;49.086;33.418;2023-03-01T03:26:26;101080.00;;;-3.15;91.24
74578;BME280;63173;49.086;33.418;2023-03-01T03:28:51;101087.31;;;-3.17;90.97
74578;BME280;63173;49.086;33.418;2023-03-01T03:31:17;101076.81;;;-3.11;90.41
74578;BME280;63173;49.086;33.418;2023-03-01T03:33:42;101069.19;;;-3.14;90.36
74578;BME280;63173;49.086;33.418;2023-03-01T03:36:08;101066.47;;;-3.06;90.14
74578;BME280;63173;49.086;33.418;2023-03-01T03:38:39;101070.41;;;-3.16;90.10
74578;BME280;63173;49.086;33.418;2023-03-01T03:41:06;101058.69;;;-3.07;89.70
74578;BME280;63173;49.086;33.418;2023-03-01T03:43:35;101058.22;;;-3.11;89.30
74578;BME280;63173;49.086;33.418;2023-03-01T03:46:01;101062.69;;;-3.11;89.13
74578;BME280;63173;49.086;33.418;2023-03-01T03:48:31;101062.00;;;-3.05;89.14
74578;BME280;63173;49.086;33.418;2023-03-01T03:50:58;101056.69;;;-3.05;88.88
74578;BME280;63173;49.086;33.418;2023-03-01T03:53:25;101048.69;;;-3.05;89.05
74578;BME280;63173;49.086;33.418;2023-03-01T03:55:50;101048.25;;;-3.09;89.00
74578;BME280;63173;49.086;33.418;2023-03-01T03:58:17;101048.59;;;-3.12;88.70
74578;BME280;63173;49.086;33.418;2023-03-01T04:00:45;101048.97;;;-3.15;88.89
74578;BME280;63173;49.086;33.418;2023-03-01T04:03:13;101049.59;;;-3.13;88.95
74578;BME280;63173;49.086;33.418;2023-03-01T04:05:39;101039.16;;;-3.14;88.92
74578;BME280;63173;49.086;33.418;2023-03-01T04:08:06;101041.81;;;-3.14;88.78
74578;BME280;63173;49.086;33.418;2023-03-01T04:10:40;101047.94;;;-3.14;88.73
74578;BME280;63173;49.086;33.418;2023-03-01T04:13:08;101038.41;;;-3.08;88.55
74578;BME280;63173;49.086;33.418;2023-03-01T04:15:35;101047.94;;;-3.14;88.71
74578;BME280;63173;49.086;33.418;2023-03-01T04:18:01;101037.03;;;-3.19;88.89
74578;BME280;63173;49.086;33.418;2023-03-01T04:20:29;101034.47;;;-3.12;89.03
74578;BME280;63173;49.086;33.418;2023-03-01T04:23:01;101040.97;;;-3.15;88.95
74578;BME280;63173;49.086;33.418;2023-03-01T04:25:40;101045.00;;;-3.19;88.71
74578;BME280;63173;49.086;33.418;2023-03-01T04:28:06;101060.50;;;-3.08;88.67
74578;BME280;63173;49.086;33.418;2023-03-01T04:30:32;101048.06;;;-3.07;88.29
74578;BME280;63173;49.086;33.418;2023-03-01T04:33:02;101048.88;;;-3.07;88.56
74578;BME280;63173;49.086;33.418;2023-03-01T04:35:29;101052.66;;;-3.01;87.96
74578;BME280;63173;49.086;33.418;2023-03-01T04:37:54;101048.78;;;-2.99;88.23
74578;BME280;63173;49.086;33.418;2023-03-01T04:40:20;101043.28;;;-2.97;87.91
74578;BME280;63173;49.086;33.418;2023-03-01T04:42:46;101036.41;;;-3.06;87.54
74578;BME280;63173;49.086;33.418;2023-03-01T04:45:12;101034.97;;;-2.94;87.69
74578;BME280;63173;49.086;33.418;2023-03-01T04:47:42;101031.28;;;-2.93;87.44
74578;BME280;63173;49.086;33.418;2023-03-01T04:50:09;101034.25;;;-2.88;87.24
74578;BME280;63173;49.086;33.418;2023-03-01T04:52:35;101047.34;;;-2.87;86.97
74578;BME280;63173;49.086;33.418;2023-03-01T04:55:01;101040.66;;;-2.82;86.89
74578;BME280;63173;49.086;33.418;2023-03-01T04:57:26;101050.09;;;-2.80;86.62
74578;BME280;63173;49.086;33.418;2023-03-01T04:59:52;101044.63;;;-2.78;85.99
74578;BME280;63173;49.086;33.418;2023-03-01T05:02:17;101044.63;;;-2.78;86.19
74578;BME280;63173;49.086;33.418;2023-03-01T05:04:43;101053.69;;;-2.73;85.75
74578;BME280;63173;49.086;33.418;2023-03-01T05:07:08;101043.06;;;-2.73;86.08
74578;BME280;63173;49.086;33.418;2023-03-01T05:09:34;101051.03;;;-2.73;86.10
74578;BME280;63173;49.086;33.418;2023-03-01T05:11:59;101055.44;;;-2.65;85.92
74578;BME280;63173;49.086;33.418;2023-03-01T05:14:25;101064.72;;;-2.61;85.25
74578;BME280;63173;49.086;33.418;2023-03-01T05:16:50;101050.50;;;-2.54;84.84
74578;BME280;63173;49.086;33.418;2023-03-01T05:19:15;101064.59;;;-2.53;85.57
74578;BME280;63173;49.086;33.418;2023-03-01T05:21:42;101063.41;;;-2.51;84.58
74578;BME280;63173;49.086;33.418;2023-03-01T05:24:27;101061.41;;;-2.49;85.44
74578;BME280;63173;49.086;33.418;2023-03-01T05:26:53;101073.31;;;-2.45;84.95
74578;BME280;63173;49.086;33.418;2023-03-01T05:29:19;101058.94;;;-2.50;84.58
74578;BME280;63173;49.086;33.418;2023-03-01T05:31:53;101070.09;;;-2.40;84.28
74578;BME280;63173;49.086;33.418;2023-03-01T05:36:52;101065.06;;;-2.35;83.56
74578;BME280;63173;49.086;33.418;2023-03-01T05:39:23;101060.09;;;-2.38;83.80
74578;BME280;63173;49.086;33.418;2023-03-01T05:41:57;101062.31;;;-2.27;84.71
74578;BME280;63173;49.086;33.418;2023-03-01T05:44:23;101074.34;;;-2.31;84.00
74578;BME280;63173;49.086;33.418;2023-03-01T05:46:48;101061.69;;;-2.29;83.47
74578;BME280;63173;49.086;33.418;2023-03-01T05:49:15;101068.81;;;-2.30;84.31
74578;BME280;63173;49.086;33.418;2023-03-01T05:51:42;101067.00;;;-2.29;84.06
74578;BME280;63173;49.086;33.418;2023-03-01T05:54:11;101070.56;;;-2.22;83.26
74578;BME280;63173;49.086;33.418;2023-03-01T05:56:36;101054.22;;;-2.19;83.50
74578;BME280;63173;49.086;33.418;2023-03-01T05:59:03;101065.78;;;-2.12;83.83
74578;BME280;63173;49.086;33.418;2023-03-01T06:01:30;101072.94;;;-2.13;83.93
74578;BME280;63173;49.086;33.418;2023-03-01T06:03:55;101062.66;;;-2.16;83.47
74578;BME280;63173;49.086;33.418;2023-03-01T06:06:22;101054.22;;;-2.19;84.07
74578;BME280;63173;49.086;33.418;2023-03-01T06:08:47;101065.66;;;-2.04;84.46
74578;BME280;63173;49.086;33.418;2023-03-01T06:11:13;101055.75;;;-1.96;83.55
74578;BME280;63173;49.086;33.418;2023-03-01T06:13:38;101051.59;;;-1.98;83.41
74578;BME280;63173;49.086;33.418;2023-03-01T06:16:05;101069.69;;;-1.94;82.67
74578;BME280;63173;49.086;33.418;2023-03-01T06:18:31;101075.94;;;-2.01;81.88
74578;BME280;63173;49.086;33.418;2023-03-01T06:20:57;101065.75;;;-1.98;82.68
74578;BME280;63173;49.086;33.418;2023-03-01T06:23:23;101067.22;;;-1.95;82.47
74578;BME280;63173;49.086;33.418;2023-03-01T06:25:49;101075.22;;;-1.95;82.12
74578;BME280;63173;49.086;33.418;2023-03-01T06:28:14;101067.53;;;-1.69;82.72
74578;BME280;63173;49.086;33.418;2023-03-01T06:30:40;101053.63;;;-1.64;82.86
74578;BME280;63173;49.086;33.418;2023-03-01T06:33:05;101057.66;;;-1.68;82.13
74578;BME280;63173;49.086;33.418;2023-03-01T06:35:31;101050.63;;;-1.76;82.27
74578;BME280;63173;49.086;33.418;2023-03-01T06:37:58;101057.84;;;-1.70;81.59
74578;BME280;63173;49.086;33.418;2023-03-01T06:40:23;101055.28;;;-1.63;82.13
74578;BME280;63173;49.086;33.418;2023-03-01T06:42:50;101060.00;;;-1.44;81.90
74578;BME280;63173;49.086;33.418;2023-03-01T06:45:17;101049.53;;;-1.46;80.55
74578;BME280;63173;49.086;33.418;2023-03-01T06:47:42;101043.72;;;-1.49;80.08
74578;BME280;63173;49.086;33.418;2023-03-01T06:50:08;101048.94;;;-1.41;79.91
74578;BME280;63173;49.086;33.418;2023-03-01T06:52:34;101049.38;;;-1.38;80.48
74578;BME280;63173;49.086;33.418;2023-03-01T06:55:00;101053.38;;;-1.27;80.07
74578;BME280;63173;49.086;33.418;2023-03-01T06:57:25;101052.97;;;-1.24;79.80
74578;BME280;63173;49.086;33.418;2023-03-01T06:59:51;101054.16;;;-1.06;79.94
74578;BME280;63173;49.086;33.418;2023-03-01T07:02:16;101063.66;;;-1.24;80.34
74578;BME280;63173;49.086;33.418;2023-03-01T07:04:42;101052.84;;;-1.16;79.82
74578;BME280;63173;49.086;33.418;2023-03-01T07:07:08;101051.50;;;-1.06;80.58
74578;BME280;63173;49.086;33.418;2023-03-01T07:09:34;101040.28;;;-0.95;79.29
74578;BME280;63173;49.086;33.418;2023-03-01T07:11:59;101045.47;;;-0.93;80.60
74578;BME280;63173;49.086;33.418;2023-03-01T07:14:25;101055.72;;;-0.90;79.47
74578;BME280;63173;49.086;33.418;2023-03-01T07:16:51;101046.09;;;-0.91;79.33
74578;BME280;63173;49.086;33.418;2023-03-01T07:19:17;101044.84;;;-0.88;79.66
74578;BME280;63173;49.086;33.418;2023-03-01T07:21:42;101057.19;;;-0.87;78.96
74578;BME280;63173;49.086;33.418;2023-03-01T07:24:08;101053.75;;;-0.81;80.37
74578;BME280;63173;49.086;33.418;2023-03-01T07:26:34;101061.28;;;-0.57;79.65
74578;BME280;63173;49.086;33.418;2023-03-01T07:29:00;101043.81;;;-0.66;78.23
74578;BME280;63173;49.086;33.418;2023-03-01T07:31:26;101044.47;;;-0.58;79.62
74578;BME280;63173;49.086;33.418;2023-03-01T07:33:54;101045.22;;;-0.70;79.27
74578;BME280;63173;49.086;33.418;2023-03-01T07:36:19;101038.91;;;-0.56;79.28
74578;BME280;63173;49.086;33.418;2023-03-01T07:38:45;101035.88;;;-0.53;78.29
74578;BME280;63173;49.086;33.418;2023-03-01T07:41:10;101050.06;;;-0.46;79.22
74578;BME280;63173;49.086;33.418;2023-03-01T07:43:35;101025.53;;;-0.22;79.47
74578;BME280;63173;49.086;33.418;2023-03-01T07:46:01;101034.53;;;-0.36;77.97
74578;BME280;63173;49.086;33.418;2023-03-01T07:48:28;101035.84;;;-0.19;79.03
74578;BME280;63173;49.086;33.418;2023-03-01T07:50:53;101041.56;;;-0.22;78.80
74578;BME280;63173;49.086;33.418;2023-03-01T07:53:19;101034.81;;;-0.18;78.21
74578;BME280;63173;49.086;33.418;2023-03-01T07:55:44;101029.31;;;-0.10;77.33
74578;BME280;63173;49.086;33.418;2023-03-01T07:58:10;101019.28;;;0.05;78.24
74578;BME280;63173;49.086;33.418;2023-03-01T08:00:35;101024.38;;;-0.07;76.84
74578;BME280;63173;49.086;33.418;2023-03-01T08:03:01;101043.69;;;-0.45;77.04
74578;BME280;63173;49.086;33.418;2023-03-01T08:05:27;101033.34;;;-0.27;77.80
74578;BME280;63173;49.086;33.418;2023-03-01T08:07:53;101028.63;;;-0.25;78.81
74578;BME280;63173;49.086;33.418;2023-03-01T08:10:19;101023.13;;;-0.17;77.93
74578;BME280;63173;49.086;33.418;2023-03-01T08:12:44;101036.69;;;-0.06;76.90
74578;BME280;63173;49.086;33.418;2023-03-01T08:15:10;101034.66;;;-0.10;78.11
74578;BME280;63173;49.086;33.418;2023-03-01T08:17:36;101024.25;;;0.15;77.24
74578;BME280;63173;49.086;33.418;2023-03-01T08:20:01;101021.75;;;0.07;77.56
74578;BME280;63173;49.086;33.418;2023-03-01T08:22:29;101022.47;;;0.48;77.07
74578;BME280;63173;49.086;33.418;2023-03-01T08:24:54;101007.56;;;0.06;77.11
74578;BME280;63173;49.086;33.418;2023-03-01T08:27:21;101009.69;;;0.24;78.04
74578;BME280;63173;49.086;33.418;2023-03-01T08:29:47;101008.06;;;0.36;77.10
74578;BME280;63173;49.086;33.418;2023-03-01T08:32:12;101014.81;;;0.25;78.07
74578;BME280;63173;49.086;33.418;2023-03-01T08:34:37;101030.34;;;-0.05;78.82
74578;BME280;63173;49.086;33.418;2023-03-01T08:37:03;101016.44;;;0.20;79.50
74578;BME280;63173;49.086;33.418;2023-03-01T08:39:28;101012.53;;;0.16;79.10
74578;BME280;63173;49.086;33.418;2023-03-01T08:41:54;101018.91;;;0.15;78.61
74578;BME280;63173;49.086;33.418;2023-03-01T08:44:19;101009.06;;;0.15;78.50
74578;BME280;63173;49.086;33.418;2023-03-01T08:46:46;100998.41;;;0.28;78.72
74578;BME280;63173;49.086;33.418;2023-03-01T08:49:17;100996.53;;;0.29;78.49
74578;BME280;63173;49.086;33.418;2023-03-01T08:51:44;100999.00;;;0.24;79.17
74578;BME280;63173;49.086;33.418;2023-03-01T08:54:15;100989.16;;;0.37;79.09
74578;BME280;63173;49.086;33.418;2023-03-01T08:56:43;100989.38;;;0.55;79.48
74578;BME280;63173;49.086;33.418;2023-03-01T08:59:10;100982.97;;;0.95;78.53
74578;BME280;63173;49.086;33.418;2023-03-01T09:01:36;100984.84;;;0.88;77.76
74578;BME280;63173;49.086;33.418;2023-03-01T09:04:02;100989.56;;;0.93;77.40
74578;BME280;63173;49.086;33.418;2023-03-01T09:06:30;100995.53;;;0.56;78.17
74578;BME280;63173;49.086;33.418;2023-03-01T09:08:56;100993.91;;;0.81;78.80
74578;BME280;63173;49.086;33.418;2023-03-01T09:11:22;101015.28;;;0.87;78.32
74578;BME280;63173;49.086;33.418;2023-03-01T09:13:48;100993.28;;;0.92;78.02
74578;BME280;63173;49.086;33.418;2023-03-01T09:16:15;101000.47;;;1.05;77.21
74578;BME280;63173;49.086;33.418;2023-03-01T09:18:43;100998.44;;;0.87;78.38
74578;BME280;63173;49.086;33.418;2023-03-01T09:21:11;100997.78;;;1.05;77.80
74578;BME280;63173;49.086;33.418;2023-03-01T09:23:43;101007.88;;;1.03;78.40
74578;BME280;63173;49.086;33.418;2023-03-01T09:26:11;101013.88;;;0.72;78.27
74578;BME280;63173;49.086;33.418;2023-03-01T09:28:37;101002.53;;;0.96;78.49
74578;BME280;63173;49.086;33.418;2023-03-01T09:31:04;101005.00;;;1.17;78.49
74578;BME280;63173;49.086;33.418;2023-03-01T09:33:30;100995.75;;;0.87;79.03
74578;BME280;63173;49.086;33.418;2023-03-01T09:36:04;101005.84;;;0.72;80.12
74578;BME280;63173;49.086;33.418;2023-03-01T09:38:31;101000.69;;;0.90;79.21
74578;BME280;63173;49.086;33.418;2023-03-01T09:40:57;100986.91;;;0.86;78.85
74578;BME280;63173;49.086;33.418;2023-03-01T09:45:53;100995.53;;;0.69;79.99
74578;BME280;63173;49.086;33.418;2023-03-01T09:48:22;100998.63;;;0.79;79.04
74578;BME280;63173;49.086;33.418;2023-03-01T09:50:49;101022.28;;;0.88;79.04
74578;BME280;63173;49.086;33.418;2023-03-01T09:53:24;101001.69;;;0.89;79.87
74578;BME280;63173;49.086;33.418;2023-03-01T09:56:13;101010.13;;;0.99;79.02
74578;BME280;63173;49.086;33.418;2023-03-01T09:58:59;101014.66;;;0.98;79.21
74578;BME280;63173;49.086;33.418;2023-03-01T10:01:35;101013.44;;;0.81;79.25
74578;BME280;63173;49.086;33.418;2023-03-01T10:09:37;100993.25;;;1.05;79.42
74578;BME280;63173;49.086;33.418;2023-03-01T10:12:09;101000.06;;;1.08;79.38
74578;BME280;63173;49.086;33.418;2023-03-01T10:14:39;100987.09;;;1.05;80.90
74578;BME280;63173;49.086;33.418;2023-03-01T10:17:24;100995.09;;;1.18;79.96
74578;BME280;63173;49.086;33.418;2023-03-01T10:19:50;100994.66;;;1.27;80.23
74578;BME280;63173;49.086;33.418;2023-03-01T10:24:42;100987.81;;;1.51;79.62
74578;BME280;63173;49.086;33.418;2023-03-01T10:27:23;100992.38;;;1.31;78.39
74578;BME280;63173;49.086;33.418;2023-03-01T10:30:20;100987.47;;;1.28;79.53
74578;BME280;63173;49.086;33.418;2023-03-01T10:32:48;100975.03;;;1.53;79.60
74578;BME280;63173;49.086;33.418;2023-03-01T10:35:25;100975.88;;;1.47;79.18
74578;BME280;63173;49.086;33.418;2023-03-01T10:38:11;100972.38;;;1.53;79.54
74578;BME280;63173;49.086;33.418;2023-03-01T10:43:16;100970.25;;;1.68;79.45
74578;BME280;63173;49.086;33.418;2023-03-01T10:45:41;100961.50;;;1.85;78.93
74578;BME280;63173;49.086;33.418;2023-03-01T10:48:19;100967.97;;;1.71;79.23
74578;BME280;63173;49.086;33.418;2023-03-01T10:50:57;100958.84;;;1.79;79.01
74578;BME280;63173;49.086;33.418;2023-03-01T10:53:33;100961.84;;;1.96;78.72
74578;BME280;63173;49.086;33.418;2023-03-01T10:58:29;100942.16;;;2.15;78.01
74578;BME280;63173;49.086;33.418;2023-03-01T11:03:37;100944.19;;;1.88;78.10
74578;BME280;63173;49.086;33.418;2023-03-01T11:08:34;100946.25;;;1.86;79.03
74578;BME280;63173;49.086;33.418;2023-03-01T11:13:53;100960.38;;;1.62;79.36
74578;BME280;63173;49.086;33.418;2023-03-01T11:16:28;100950.50;;;1.56;79.92
74578;BME280;63173;49.086;33.418;2023-03-01T11:18:59;100952.22;;;1.88;79.63
74578;BME280;63173;49.086;33.418;2023-03-01T11:21:28;100945.31;;;1.67;79.64
74578;BME280;63173;49.086;33.418;2023-03-01T11:23:57;100957.78;;;1.93;80.06
74578;BME280;63173;49.086;33.418;2023-03-01T11:26:24;100951.97;;;1.96;79.29
74578;BME280;63173;49.086;33.418;2023-03-01T11:28:53;100944.69;;;2.10;79.14
74578;BME280;63173;49.086;33.418;2023-03-01T11:31:21;100956.66;;;2.38;79.03
74578;BME280;63173;49.086;33.418;2023-03-01T11:34:11;100946.91;;;2.44;78.19
74578;BME280;63173;49.086;33.418;2023-03-01T11:36:48;100953.31;;;2.12;79.24
74578;BME280;63173;49.086;33.418;2023-03-01T11:39:37;100951.59;;;2.24;79.17
74578;BME280;63173;49.086;33.418;2023-03-01T11:42:15;100944.13;;;2.32;79.28
74578;BME280;63173;49.086;33.418;2023-03-01T11:44:43;100944.81;;;2.21;78.89
74578;BME280;63173;49.086;33.418;2023-03-01T11:53:06;100953.25;;;1.87;80.15
74578;BME280;63173;49.086;33.418;2023-03-01T12:01:38;100958.09;;;1.65;81.32
74578;BME280;63173;49.086;33.418;2023-03-01T12:05:16;100953.91;;;1.82;81.30
74578;BME280;63173;49.086;33.418;2023-03-01T12:20:18;100949.28;;;1.96;80.05
74578;BME280;63173;49.086;33.418;2023-03-01T12:25:46;100950.38;;;2.20;79.87
74578;BME280;63173;49.086;33.418;2023-03-01T12:36:43;100962.00;;;2.07;79.26
74578;BME280;63173;49.086;33.418;2023-03-01T12:49:57;100983.50;;;1.94;79.93
74578;BME280;63173;49.086;33.418;2023-03-01T12:57:56;100983.56;;;1.81;80.55
74578;BME280;63173;49.086;33.418;2023-03-01T13:00:32;100985.63;;;1.79;80.76
74578;BME280;63173;49.086;33.418;2023-03-01T13:17:57;101001.28;;;1.82;81.06
74578;BME280;63173;49.086;33.418;2023-03-01T13:20:44;100992.00;;;1.78;81.23
74578;BME280;63173;49.086;33.418;2023-03-01T13:44:25;100970.09;;;2.01;79.58
74578;BME280;63173;49.086;33.418;2023-03-01T13:49:27;100965.28;;;2.09;79.75
74578;BME280;63173;49.086;33.418;2023-03-01T13:51:53;100975.63;;;2.06;79.89
74578;BME280;63173;49.086;33.418;2023-03-01T13:54:26;100981.38;;;2.09;79.96
74578;BME280;63173;49.086;33.418;2023-03-01T13:56:54;100971.88;;;2.13;79.13
74578;BME280;63173;49.086;33.418;2023-03-01T13:59:21;100977.44;;;2.12;79.31
74578;BME280;63173;49.086;33.418;2023-03-01T14:01:56;100972.69;;;2.14;79.33
74578;BME280;63173;49.086;33.418;2023-03-01T14:04:31;100979.66;;;2.21;79.03
74578;BME280;63173;49.086;33.418;2023-03-01T14:07:17;100973.72;;;2.13;78.52
74578;BME280;63173;49.086;33.418;2023-03-01T14:09:46;100980.53;;;2.09;79.00
74578;BME280;63173;49.086;33.418;2023-03-01T14:12:39;100976.84;;;2.10;79.40
74578;BME280;63173;49.086;33.418;2023-03-01T14:15:17;100970.81;;;2.14;79.69
74578;BME280;63173;49.086;33.418;2023-03-01T14:18:18;100979.75;;;2.08;80.10
74578;BME280;63173;49.086;33.418;2023-03-01T14:20:46;100971.09;;;2.06;79.83
74578;BME280;63173;49.086;33.418;2023-03-01T14:23:19;100970.66;;;2.09;80.35
74578;BME280;63173;49.086;33.418;2023-03-01T14:25:56;100965.03;;;2.17;80.35
74578;BME280;63173;49.086;33.418;2023-03-01T14:28:30;100978.22;;;2.19;80.20
74578;BME280;63173;49.086;33.418;2023-03-01T14:31:00;100972.56;;;2.02;80.43
74578;BME280;63173;49.086;33.418;2023-03-01T14:35:58;100975.63;;;2.06;81.02
74578;BME280;63173;49.086;33.418;2023-03-01T14:38:31;100983.34;;;1.89;81.08
74578;BME280;63173;49.086;33.418;2023-03-01T14:41:00;100980.19;;;1.99;81.64
74578;BME280;63173;49.086;33.418;2023-03-01T14:43:29;100978.38;;;1.86;82.00
74578;BME280;63173;49.086;33.418;2023-03-01T14:45:55;100984.56;;;1.93;81.31
74578;BME280;63173;49.086;33.418;2023-03-01T14:48:21;100991.16;;;1.84;81.76
74578;BME280;63173;49.086;33.418;2023-03-01T14:50:47;100997.19;;;1.79;82.30
74578;BME280;63173;49.086;33.418;2023-03-01T14:53:21;100995.97;;;1.75;82.39
74578;BME280;63173;49.086;33.418;2023-03-01T14:55:51;100995.53;;;1.78;82.56
74578;BME280;63173;49.086;33.418;2023-03-01T14:58:21;101000.44;;;1.88;82.78
74578;BME280;63173;49.086;33.418;2023-03-01T15:00:51;100995.28;;;1.86;82.48